createdAt,value
2018-01-15T00:01:39.120Z,26.37
2018-01-15T00:04:08.069Z,24.75
2018-01-15T00:06:37.030Z,24.85
2018-01-15T00:09:05.978Z,24.08
2018-01-15T00:11:34.950Z,23.52
2018-01-15T00:14:04.671Z,24.73
2018-01-15T00:16:34.418Z,24.85
2018-01-15T00:19:03.366Z,25.08
2018-01-15T00:21:33.231Z,31.08
2018-01-15T00:24:02.177Z,25.65
2018-01-15T00:26:31.899Z,24.92
2018-01-15T00:29:01.627Z,25.75
2018-01-15T00:31:30.574Z,23.52
2018-01-15T00:33:59.551Z,27.77
2018-01-15T00:36:28.498Z,26.98
2018-01-15T00:38:57.478Z,26.35
2018-01-15T00:41:26.418Z,31.67
2018-01-15T00:43:55.386Z,29.25
2018-01-15T00:46:24.347Z,27.87
2018-01-15T00:48:54.074Z,28.20
2018-01-15T00:51:23.027Z,30.12
2018-01-15T00:53:52.002Z,26.08
2018-01-15T00:56:20.959Z,23.77
2018-01-15T00:58:49.914Z,27.15
2018-01-15T01:01:19.642Z,26.40
2018-01-15T01:03:48.586Z,26.65
2018-01-15T01:06:17.550Z,27.92
2018-01-15T01:08:46.514Z,28.90
2018-01-15T01:11:15.483Z,28.25
2018-01-15T01:13:45.203Z,32.88
2018-01-15T01:16:14.937Z,28.73
2018-01-15T01:18:43.894Z,31.80
2018-01-15T01:21:12.859Z,34.25
2018-01-15T01:23:41.809Z,31.48
2018-01-15T01:26:10.778Z,28.35
2018-01-15T01:28:40.493Z,32.30
2018-01-15T01:31:10.338Z,30.25
2018-01-15T01:33:39.290Z,30.48
2018-01-15T01:36:09.010Z,30.88
2018-01-15T01:38:38.755Z,36.35
2018-01-15T01:41:07.704Z,35.65
2018-01-15T01:43:37.438Z,38.20
2018-01-15T01:46:06.385Z,33.20
2018-01-15T01:48:35.346Z,33.58
2018-01-15T01:51:04.305Z,34.35
2018-01-15T01:53:33.281Z,29.52
2018-01-15T01:56:02.996Z,31.08
2018-01-15T01:58:32.736Z,33.70
2018-01-15T02:01:01.678Z,36.83
2018-01-15T02:03:30.663Z,34.78
2018-01-15T02:05:59.610Z,31.05
2018-01-15T02:08:28.557Z,31.52
2018-01-15T02:10:57.536Z,31.85
2018-01-15T02:13:26.482Z,32.75
2018-01-15T02:15:55.445Z,34.38
2018-01-15T02:18:25.271Z,36.75
2018-01-15T02:20:54.350Z,33.08
2018-01-15T02:23:23.275Z,34.03
2018-01-15T02:25:52.247Z,32.85
2018-01-15T02:28:21.967Z,32.33
2018-01-15T02:30:50.943Z,33.50
2018-01-15T02:33:21.592Z,32.08
2018-01-15T02:35:50.558Z,32.45
2018-01-15T02:38:20.276Z,29.48
2018-01-15T02:40:50.052Z,31.70
2018-01-15T02:43:18.999Z,34.15
2018-01-15T02:45:47.946Z,32.45
2018-01-15T02:48:16.914Z,35.40
2018-01-15T02:50:45.863Z,32.50
2018-01-15T02:53:15.606Z,30.90
2018-01-15T02:55:44.558Z,30.62
2018-01-15T02:58:14.302Z,28.58
2018-01-15T03:00:43.242Z,36.45
2018-01-15T03:03:12.209Z,33.55
2018-01-15T03:05:41.158Z,33.30
2018-01-15T03:08:10.122Z,32.72
2018-01-15T03:10:39.834Z,33.85
2018-01-15T03:13:09.570Z,32.30
2018-01-15T03:15:38.514Z,30.75
2018-01-15T03:18:07.482Z,36.17
2018-01-15T03:20:36.442Z,32.00
2018-01-15T03:23:05.418Z,32.10
2018-01-15T03:25:35.130Z,35.03
2018-01-15T03:28:04.890Z,32.13
2018-01-15T03:30:33.835Z,29.90
2018-01-15T03:33:03.547Z,30.10
2018-01-15T03:35:33.283Z,34.67
2018-01-15T03:38:02.226Z,33.25
2018-01-15T03:40:31.195Z,36.03
2018-01-15T03:43:00.140Z,36.13
2018-01-15T03:45:29.106Z,36.95
2018-01-15T03:47:58.047Z,40.58
2018-01-15T03:50:27.016Z,38.47
2018-01-15T03:52:55.963Z,36.40
2018-01-15T03:55:24.962Z,34.45
2018-01-15T03:57:53.910Z,37.72
2018-01-15T04:00:22.866Z,35.05
2018-01-15T04:02:52.598Z,31.48
2018-01-15T04:05:21.548Z,39.65
2018-01-15T04:07:50.519Z,37.05
2018-01-15T04:10:19.479Z,33.60
2018-01-15T04:12:48.446Z,35.80
2018-01-15T04:15:18.172Z,33.30
2018-01-15T04:17:47.144Z,31.15
2018-01-15T04:20:16.854Z,33.28
2018-01-15T04:22:46.582Z,33.53
2018-01-15T04:25:16.499Z,32.22
2018-01-15T04:27:47.458Z,37.35
2018-01-15T04:30:16.406Z,37.50
2018-01-15T04:32:46.142Z,36.47
2018-01-15T04:35:15.090Z,36.55
2018-01-15T04:37:44.054Z,36.47
2018-01-15T04:40:13.003Z,40.38
2018-01-15T04:42:42.741Z,39.03
2018-01-15T04:45:11.687Z,38.75
2018-01-15T04:47:40.646Z,42.25
2018-01-15T04:50:09.618Z,40.20
2018-01-15T04:52:38.567Z,39.05
2018-01-15T04:55:08.302Z,36.90
2018-01-15T04:57:37.258Z,42.80
2018-01-15T05:00:06.229Z,39.50
2018-01-15T05:02:35.179Z,41.60
2018-01-15T05:05:04.138Z,43.03
2018-01-15T05:07:33.091Z,40.78
2018-01-15T05:10:02.266Z,43.30
2018-01-15T05:12:31.218Z,42.67
2018-01-15T05:15:00.166Z,43.30
2018-01-15T05:17:31.111Z,40.63
2018-01-15T05:20:00.048Z,43.13
2018-01-15T05:22:29.779Z,41.20
2018-01-15T05:24:58.747Z,40.22
2018-01-15T05:27:28.454Z,40.17
2018-01-15T05:29:58.354Z,40.08
2018-01-15T05:32:27.299Z,41.70
2018-01-15T05:34:56.247Z,40.20
2018-01-15T05:37:25.211Z,44.33
2018-01-15T05:39:54.181Z,42.60
2018-01-15T05:42:23.162Z,47.35
2018-01-15T05:44:52.111Z,41.75
2018-01-15T05:47:21.071Z,48.38
2018-01-15T05:49:50.014Z,44.70
2018-01-15T05:52:19.778Z,46.80
2018-01-15T05:54:48.724Z,51.65
2018-01-15T05:57:18.443Z,54.15
2018-01-15T05:59:52.068Z,53.83
2018-01-15T06:02:21.006Z,55.63
2018-01-15T06:04:49.978Z,47.75
2018-01-15T06:07:18.926Z,46.85
2018-01-15T06:09:47.890Z,49.72
2018-01-15T06:12:17.601Z,48.00
2018-01-15T06:14:47.338Z,48.78
2018-01-15T06:17:16.282Z,48.72
2018-01-15T06:19:45.250Z,50.47
2018-01-15T06:22:14.206Z,47.03
2018-01-15T06:24:43.205Z,52.90
2018-01-15T06:27:19.652Z,49.88
2018-01-15T06:30:09.723Z,53.05
2018-01-15T06:40:08.683Z,50.83
2018-01-15T06:42:44.185Z,46.60
2018-01-15T06:45:13.139Z,46.45
2018-01-15T06:47:42.103Z,47.80
2018-01-15T06:50:11.822Z,51.67
2018-01-15T06:52:41.555Z,46.25
2018-01-15T06:55:10.503Z,48.80
2018-01-15T06:57:39.466Z,51.97
2018-01-15T07:00:08.415Z,52.62
2018-01-15T07:02:37.386Z,47.33
2018-01-15T07:05:06.331Z,53.13
2018-01-15T07:07:35.665Z,53.17
2018-01-15T07:10:04.618Z,52.97
2018-01-15T07:12:33.571Z,61.00
2018-01-15T07:15:03.295Z,51.08
2018-01-15T07:17:32.379Z,61.42
2018-01-15T07:20:02.094Z,58.05
2018-01-15T07:22:31.043Z,60.08
2018-01-15T07:25:00.008Z,55.35
2018-01-15T07:27:28.971Z,64.78
2018-01-15T07:29:57.943Z,59.03
2018-01-15T07:32:26.886Z,51.88
2018-01-15T07:34:55.855Z,51.05
2018-01-15T07:37:24.808Z,53.65
2018-01-15T07:39:53.930Z,57.85
2018-01-15T07:42:23.652Z,51.67
2018-01-15T07:44:52.618Z,52.53
2018-01-15T07:47:22.342Z,54.75
2018-01-15T07:49:52.286Z,56.67
2018-01-15T07:52:21.230Z,50.88
2018-01-15T07:54:50.966Z,48.33
2018-01-15T07:57:19.919Z,51.88
2018-01-15T07:59:48.886Z,51.15
2018-01-15T08:02:17.843Z,54.80
2018-01-15T08:04:46.815Z,49.15
2018-01-15T08:07:16.540Z,52.75
2018-01-15T08:09:45.507Z,49.25
2018-01-15T08:12:14.465Z,47.30
2018-01-15T08:14:43.571Z,51.63
2018-01-15T08:17:12.527Z,45.33
2018-01-15T08:19:41.479Z,47.55
2018-01-15T08:22:10.438Z,47.60
2018-01-15T08:24:39.419Z,48.42
2018-01-15T08:27:08.387Z,46.80
2018-01-15T08:29:37.336Z,52.88
2018-01-15T08:32:06.310Z,50.88
2018-01-15T08:34:37.246Z,46.58
2018-01-15T08:37:06.187Z,51.63
2018-01-15T08:39:35.910Z,52.15
2018-01-15T08:42:04.903Z,47.85
2018-01-15T08:44:33.860Z,46.33
2018-01-15T08:47:02.811Z,47.38
2018-01-15T08:49:31.786Z,44.17
2018-01-15T08:52:00.746Z,51.50
2018-01-15T08:54:30.483Z,44.65
2018-01-15T08:56:59.437Z,46.47
2018-01-15T08:59:28.398Z,46.08
2018-01-15T09:01:57.358Z,48.42
2018-01-15T09:04:26.329Z,45.47
2018-01-15T09:06:56.040Z,42.33
2018-01-15T09:09:25.787Z,50.80
2018-01-15T09:11:54.739Z,45.08
2018-01-15T09:14:24.475Z,43.95
2018-01-15T09:16:53.418Z,39.35
2018-01-15T09:19:22.390Z,50.80
2018-01-15T09:21:51.347Z,43.95
2018-01-15T09:24:26.104Z,46.88
2018-01-15T09:26:55.058Z,43.75
2018-01-15T09:29:24.031Z,41.30
2018-01-15T09:31:52.977Z,42.20
2018-01-15T09:34:22.119Z,42.62
2018-01-15T09:36:51.842Z,47.62
2018-01-15T09:39:21.589Z,47.25
2018-01-15T09:41:50.562Z,42.42
2018-01-15T09:44:19.510Z,47.15
2018-01-15T09:46:48.487Z,39.80
2018-01-15T09:49:17.453Z,43.22
2018-01-15T09:51:46.426Z,40.60
2018-01-15T09:54:15.388Z,39.10
2018-01-15T09:56:45.131Z,41.20
2018-01-15T09:59:14.086Z,37.95
2018-01-15T10:01:43.070Z,37.53
2018-01-15T10:04:12.033Z,42.38
2018-01-15T10:06:41.011Z,35.25
2018-01-15T10:09:09.975Z,37.77
2018-01-15T10:11:38.950Z,32.17
2018-01-15T10:14:08.680Z,36.60
2018-01-15T10:16:37.683Z,35.67
2018-01-15T10:19:06.658Z,38.67
2018-01-15T10:21:35.628Z,41.30
2018-01-15T10:24:04.614Z,34.27
2018-01-15T10:26:33.582Z,35.57
2018-01-15T10:29:02.570Z,36.93
2018-01-15T10:31:32.472Z,33.40
2018-01-15T10:34:01.454Z,31.43
2018-01-15T10:36:30.422Z,32.87
2018-01-15T10:38:59.407Z,34.73
2018-01-15T10:41:29.145Z,37.23
2018-01-15T10:43:58.127Z,34.37
2018-01-15T10:46:27.895Z,31.20
2018-01-15T10:48:56.987Z,34.83
2018-01-15T10:51:25.952Z,32.60
2018-01-15T10:54:04.652Z,33.00
2018-01-15T10:56:33.609Z,34.27
2018-01-15T10:59:02.617Z,31.47
2018-01-15T11:01:32.343Z,36.73
2018-01-15T11:04:01.302Z,34.00
2018-01-15T11:06:30.287Z,33.67
2018-01-15T11:08:59.260Z,32.43
2018-01-15T11:11:28.242Z,33.40
2018-01-15T11:13:57.210Z,34.50
2018-01-15T11:16:26.196Z,35.77
2018-01-15T11:18:55.150Z,35.20
2018-01-15T11:21:24.130Z,33.87
2018-01-15T11:23:53.107Z,35.40
2018-01-15T11:26:22.087Z,36.50
2018-01-15T11:28:51.047Z,35.70
2018-01-15T11:31:20.038Z,35.30
2018-01-15T11:33:49.762Z,37.13
2018-01-15T11:36:18.752Z,36.00
2018-01-15T11:38:47.743Z,36.17
2018-01-15T11:41:16.717Z,37.00
2018-01-15T11:43:46.456Z,35.90
2018-01-15T11:46:15.409Z,35.50
2018-01-15T11:48:44.383Z,36.50
2018-01-15T11:51:13.355Z,36.30
2018-01-15T11:53:42.330Z,37.13
2018-01-15T11:56:11.296Z,37.92
2018-01-15T11:58:41.047Z,36.67
2018-01-15T12:01:10.013Z,38.58
2018-01-15T12:03:39.008Z,39.13
2018-01-15T12:06:07.966Z,36.88
2018-01-15T12:08:37.703Z,37.70
2018-01-15T12:11:06.687Z,39.05
2018-01-15T12:13:36.416Z,41.72
2018-01-15T12:16:05.386Z,37.35
2018-01-15T12:18:35.120Z,39.25
2018-01-15T12:21:04.140Z,40.35
2018-01-15T12:23:33.133Z,37.45
2018-01-15T12:26:02.326Z,37.63
2018-01-15T12:28:31.375Z,36.17
2018-01-15T12:31:01.223Z,34.88
2018-01-15T12:33:30.226Z,34.25
2018-01-15T12:35:59.191Z,40.33
2018-01-15T12:38:28.177Z,37.53
2018-01-15T12:40:57.156Z,36.92
2018-01-15T12:43:28.520Z,35.13
2018-01-15T12:45:57.486Z,37.35
2018-01-15T12:48:27.246Z,38.28
2018-01-15T12:50:56.305Z,37.03
2018-01-15T12:53:25.442Z,34.92
2018-01-15T12:55:54.576Z,37.17
2018-01-15T12:58:24.437Z,34.85
2018-01-15T13:00:53.600Z,32.08
2018-01-15T13:03:23.458Z,35.55
2018-01-15T13:05:52.557Z,35.10
2018-01-15T13:11:39.926Z,36.78
2018-01-15T13:14:08.962Z,34.85
2018-01-15T13:16:38.022Z,36.90
2018-01-15T13:19:08.011Z,36.22
2018-01-15T13:21:37.062Z,36.60
2018-01-15T13:24:06.137Z,38.85
2018-01-15T13:26:35.200Z,38.67
2018-01-15T13:29:04.256Z,38.65
2018-01-15T13:31:34.556Z,38.10
2018-01-15T13:34:05.106Z,34.00
2018-01-15T13:36:34.401Z,37.63
2018-01-15T13:39:03.573Z,39.38
2018-01-15T13:41:33.364Z,35.88
2018-01-15T13:44:04.726Z,40.05
2018-01-15T13:46:33.737Z,37.20
2018-01-15T13:49:02.821Z,41.50
2018-01-15T13:51:32.711Z,40.28
2018-01-15T13:54:01.661Z,36.22
2018-01-15T13:56:30.639Z,38.28
2018-01-15T13:58:59.590Z,36.55
2018-01-15T14:01:30.480Z,39.20
2018-01-15T14:03:59.394Z,35.78
2018-01-15T14:06:28.376Z,35.83
2018-01-15T14:08:57.327Z,37.80
2018-01-15T14:11:27.190Z,35.88
2018-01-15T14:13:56.142Z,38.17
2018-01-15T14:16:25.863Z,43.90
2018-01-15T14:18:54.833Z,41.95
2018-01-15T14:21:24.026Z,38.90
2018-01-15T14:23:53.795Z,46.13
2018-01-15T14:26:23.365Z,47.05
2018-01-15T14:28:53.071Z,41.90
2018-01-15T14:31:22.954Z,41.47
2018-01-15T14:33:51.899Z,40.42
2018-01-15T14:36:20.851Z,38.15
2018-01-15T14:38:50.610Z,35.00
2018-01-15T14:41:19.598Z,44.10
2018-01-15T14:43:48.570Z,45.03
2018-01-15T14:46:17.535Z,40.50
2018-01-15T14:48:46.505Z,33.45
2018-01-15T14:51:15.459Z,37.80
2018-01-15T14:53:44.534Z,41.20
2018-01-15T14:56:14.335Z,36.65
2018-01-15T14:58:43.311Z,40.28
2018-01-15T15:01:12.272Z,38.45
2018-01-15T15:03:41.231Z,42.10
2018-01-15T15:06:10.194Z,40.88
2018-01-15T15:08:39.155Z,39.38
2018-01-15T15:11:08.159Z,41.47
2018-01-15T15:13:37.131Z,38.88
2018-01-15T15:16:06.128Z,36.30
2018-01-15T15:18:35.110Z,37.33
2018-01-15T15:21:04.083Z,32.72
2018-01-15T15:23:33.100Z,37.22
2018-01-15T15:26:02.061Z,33.88
2018-01-15T15:28:31.030Z,33.75
2018-01-15T15:31:00.076Z,35.33
2018-01-15T15:33:29.035Z,32.03
2018-01-15T15:35:57.991Z,32.25
2018-01-15T15:38:26.970Z,32.45
2018-01-15T15:40:55.926Z,31.25
2018-01-15T15:43:24.892Z,29.83
2018-01-15T15:45:54.614Z,32.60
2018-01-15T15:48:23.704Z,33.80
2018-01-15T15:50:53.422Z,36.05
2018-01-15T15:53:22.376Z,32.03
2018-01-15T15:55:51.419Z,34.88
2018-01-15T15:58:20.370Z,34.05
2018-01-15T16:00:49.337Z,34.20
2018-01-15T16:03:18.281Z,31.50
2018-01-15T16:05:47.273Z,28.45
2018-01-15T16:08:17.021Z,25.10
2018-01-15T16:10:46.017Z,28.12
2018-01-15T16:13:14.982Z,33.53
2018-01-15T16:15:43.950Z,31.95
2018-01-15T16:18:13.678Z,27.90
2018-01-15T16:20:42.682Z,28.55
2018-01-15T16:23:11.630Z,27.58
2018-01-15T16:25:41.395Z,28.60
2018-01-15T16:28:10.370Z,31.35
2018-01-15T16:30:39.403Z,32.28
2018-01-15T16:33:08.378Z,28.95
2018-01-15T16:35:37.345Z,32.35
2018-01-15T16:38:07.310Z,31.10
2018-01-15T16:40:36.278Z,30.98
2018-01-15T16:43:05.370Z,28.00
2018-01-15T16:45:34.336Z,28.77
2018-01-15T16:48:03.328Z,28.75
2018-01-15T16:50:32.319Z,31.83
2018-01-15T16:53:01.533Z,30.62
2018-01-15T16:55:30.522Z,26.87
2018-01-15T16:57:59.485Z,29.77
2018-01-15T17:00:28.557Z,27.13
2018-01-15T17:02:57.489Z,27.13
2018-01-15T17:05:27.460Z,29.60
2018-01-15T17:07:56.415Z,30.70
2018-01-15T17:10:26.306Z,32.30
2018-01-15T17:13:01.462Z,29.35
2018-01-15T17:15:33.133Z,25.80
2018-01-15T17:18:13.965Z,31.55
2018-01-15T17:20:47.122Z,32.38
2018-01-15T17:23:16.993Z,25.55
2018-01-15T17:25:45.954Z,27.75
2018-01-15T17:28:16.626Z,24.65
2018-01-15T17:30:45.606Z,23.35
2018-01-15T17:33:19.726Z,21.23
2018-01-15T17:35:48.675Z,22.52
2018-01-15T17:38:17.642Z,23.92
2018-01-15T17:40:46.686Z,25.00
2018-01-15T17:43:16.610Z,21.33
2018-01-15T17:45:45.571Z,20.52
2018-01-15T17:48:15.308Z,22.60
2018-01-15T17:50:44.262Z,21.67
2018-01-15T17:53:14.003Z,21.67
2018-01-15T17:55:42.950Z,21.80
2018-01-15T17:58:11.918Z,24.23
2018-01-15T18:00:40.885Z,25.42
2018-01-15T18:03:09.854Z,23.10
2018-01-15T18:05:39.086Z,24.67
2018-01-15T18:08:08.133Z,22.55
2018-01-15T18:10:37.977Z,25.15
2018-01-15T18:13:10.307Z,26.73
2018-01-15T18:15:40.066Z,26.48
2018-01-15T18:18:09.010Z,24.45
2018-01-15T18:20:37.973Z,23.58
2018-01-15T18:23:06.929Z,28.95
2018-01-15T18:25:35.894Z,31.48
2018-01-15T18:28:05.607Z,35.60
2018-01-15T18:30:35.343Z,28.12
2018-01-15T18:33:04.294Z,28.20
2018-01-15T18:35:34.179Z,28.00
2018-01-15T18:38:03.142Z,24.05
2018-01-15T18:40:32.109Z,24.87
2018-01-15T18:43:01.833Z,27.52
2018-01-15T18:45:31.736Z,25.83
2018-01-15T18:48:01.459Z,24.12
2018-01-15T18:50:31.194Z,29.92
2018-01-15T18:53:00.215Z,26.90
2018-01-15T18:55:29.154Z,22.27
2018-01-15T18:57:58.126Z,30.25
2018-01-15T19:00:27.852Z,24.77
2018-01-15T19:02:57.587Z,26.58
2018-01-15T19:05:26.537Z,28.25
2018-01-15T19:07:56.279Z,26.40
2018-01-15T19:10:25.235Z,23.87
2018-01-15T19:12:54.971Z,25.70
2018-01-15T19:15:23.926Z,24.02
2018-01-15T19:17:52.898Z,27.60
2018-01-15T19:20:22.788Z,29.67
2018-01-15T19:22:51.774Z,32.85
2018-01-15T19:25:20.731Z,35.40
2018-01-15T19:27:49.673Z,33.38
2018-01-15T19:30:18.650Z,29.77
2018-01-15T19:32:47.607Z,31.40
2018-01-15T19:35:18.647Z,33.13
2018-01-15T19:37:48.911Z,31.60
2018-01-15T19:40:17.883Z,32.00
2018-01-15T19:42:51.042Z,33.13
2018-01-15T19:48:36.903Z,31.45
2018-01-15T19:51:11.313Z,33.17
2018-01-15T19:56:54.482Z,31.25
2018-01-15T19:59:30.853Z,31.12
2018-01-15T20:02:06.035Z,27.60
2018-01-15T20:04:40.686Z,32.50
2018-01-15T20:07:17.114Z,31.25
2018-01-15T20:09:51.591Z,31.58
2018-01-15T20:12:22.238Z,31.45
2018-01-15T20:14:51.438Z,28.62
2018-01-15T20:17:21.058Z,34.05
2018-01-15T20:19:50.018Z,28.87
2018-01-15T20:22:19.203Z,32.80
2018-01-15T20:24:48.150Z,31.55
2018-01-15T20:27:17.271Z,31.30
2018-01-15T20:29:46.302Z,32.45
2018-01-15T20:32:15.525Z,30.55
2018-01-15T20:34:46.114Z,35.50
2018-01-15T20:37:15.252Z,30.08
2018-01-15T20:39:44.344Z,29.58
2018-01-15T20:42:19.930Z,30.37
2018-01-15T20:44:50.506Z,30.48
2018-01-15T20:47:20.459Z,26.35
2018-01-15T20:49:50.312Z,29.48
2018-01-15T20:52:19.492Z,29.27
2018-01-15T20:54:49.648Z,27.65
2018-01-15T20:57:20.188Z,29.63
2018-01-15T20:59:51.473Z,23.70
2018-01-15T21:02:20.525Z,22.70
2018-01-15T21:04:49.575Z,23.27
2018-01-15T21:07:19.303Z,22.60
2018-01-15T21:09:48.247Z,22.73
2018-01-15T21:12:17.215Z,23.75
2018-01-15T21:14:47.090Z,23.20
2018-01-15T21:17:16.060Z,22.60
2018-01-15T21:19:45.791Z,21.87
2018-01-15T21:22:14.878Z,22.25
2018-01-15T21:24:43.827Z,21.58
2018-01-15T21:27:12.774Z,20.20
2018-01-15T21:29:41.752Z,21.05
2018-01-15T21:32:10.698Z,20.25
2018-01-15T21:34:39.671Z,19.52
2018-01-15T21:37:08.620Z,17.73
2018-01-15T21:39:38.358Z,22.58
2018-01-15T21:42:07.319Z,20.25
2018-01-15T21:44:37.051Z,18.17
2018-01-15T21:47:06.002Z,19.35
2018-01-15T21:49:34.974Z,22.87
2018-01-15T21:52:03.935Z,13.90
2018-01-15T21:54:34.879Z,19.25
2018-01-15T21:57:03.823Z,14.32
2018-01-15T21:59:34.012Z,18.05
2018-01-15T22:02:02.954Z,12.77
2018-01-15T22:04:32.910Z,10.27
2018-01-15T22:07:01.867Z,10.48
2018-01-15T22:09:36.770Z,12.00
2018-01-15T22:12:05.711Z,8.82
2018-01-15T22:14:34.651Z,6.43
2018-01-15T22:17:03.627Z,9.35
2018-01-15T22:19:32.590Z,8.07
2018-01-15T22:22:01.551Z,10.18
2018-01-15T22:24:30.495Z,7.30
2018-01-15T22:26:59.458Z,7.53
2018-01-15T22:29:40.946Z,7.30
2018-01-15T22:32:09.902Z,8.38
2018-01-15T22:34:39.614Z,9.05
2018-01-15T22:37:09.348Z,8.57
2018-01-15T22:39:38.287Z,9.93
2018-01-15T22:42:07.249Z,8.80
2018-01-15T22:44:36.190Z,8.18
2018-01-15T22:47:05.923Z,8.05
2018-01-15T22:49:34.864Z,9.15
2018-01-15T22:52:03.814Z,10.43
2018-01-15T22:54:42.814Z,9.70
2018-01-15T22:57:13.278Z,11.05
2018-01-15T22:59:42.218Z,9.13
2018-01-15T23:02:11.182Z,9.50
2018-01-15T23:04:40.122Z,9.73
2018-01-15T23:07:09.855Z,11.30
2018-01-15T23:09:38.800Z,10.95
2018-01-15T23:12:07.770Z,9.20
2018-01-15T23:14:36.714Z,9.38
2018-01-15T23:17:06.443Z,10.27
2018-01-15T23:19:35.392Z,10.07
2018-01-15T23:22:04.350Z,9.88
2018-01-15T23:24:33.300Z,9.38
2018-01-15T23:27:03.041Z,9.48
2018-01-15T23:29:31.983Z,8.63
2018-01-15T23:32:01.695Z,9.38
2018-01-15T23:34:31.425Z,9.15
2018-01-15T23:37:00.367Z,8.98
2018-01-15T23:39:29.337Z,7.57
2018-01-15T23:42:04.165Z,8.07
2018-01-15T23:44:33.135Z,8.00
2018-01-15T23:47:02.074Z,8.05
2018-01-15T23:49:31.036Z,7.50
2018-01-15T23:51:59.974Z,6.90
2018-01-15T23:54:33.942Z,6.95
2018-01-15T23:57:02.898Z,8.15
2018-01-15T23:59:37.458Z,6.75
